createdAt,value
2018-11-28T00:00:47.755Z,101927.97
2018-11-28T00:03:14.899Z,101924.45
2018-11-28T00:05:41.991Z,101921.02
2018-11-28T00:08:27.923Z,101920.38
2018-11-28T00:10:54.986Z,101919.30
2018-11-28T00:13:22.054Z,101921.41
2018-11-28T00:15:49.249Z,101912.73
2018-11-28T00:18:16.325Z,101904.36
2018-11-28T00:20:43.589Z,101900.68
2018-11-28T00:23:10.726Z,101898.34
2018-11-28T00:25:38.235Z,101898.64
2018-11-28T00:28:05.346Z,101893.56
2018-11-28T00:30:32.458Z,101899.23
2018-11-28T00:32:59.880Z,101902.15
2018-11-28T00:35:26.957Z,101908.27
2018-11-28T00:37:54.119Z,101898.59
2018-11-28T00:40:22.486Z,101893.75
2018-11-28T00:42:49.574Z,101894.14
2018-11-28T00:45:18.710Z,101899.77
2018-11-28T00:47:46.161Z,101905.80
2018-11-28T00:50:15.430Z,101901.31
2018-11-28T00:52:42.526Z,101910.86
2018-11-28T00:55:14.670Z,101912.06
2018-11-28T00:57:42.021Z,101917.36
2018-11-28T01:00:16.043Z,101915.32
2018-11-28T01:02:43.506Z,101911.98
2018-11-28T01:05:11.330Z,101909.59
2018-11-28T01:07:38.500Z,101913.24
2018-11-28T01:10:08.442Z,101906.97
2018-11-28T01:12:35.656Z,101913.48
2018-11-28T01:15:02.918Z,101904.42
2018-11-28T01:17:30.721Z,101901.66
2018-11-28T01:19:58.360Z,101909.59
2018-11-28T01:22:25.441Z,101913.19
2018-11-28T01:24:52.637Z,101907.36
2018-11-28T01:27:20.276Z,101909.89
2018-11-28T01:29:47.367Z,101908.18
2018-11-28T01:32:14.436Z,101908.44
2018-11-28T01:34:41.764Z,101910.70
2018-11-28T01:37:08.837Z,101912.91
2018-11-28T01:39:35.897Z,101916.94
2018-11-28T01:42:03.385Z,101911.13
2018-11-28T01:44:30.449Z,101910.08
2018-11-28T01:46:57.515Z,101911.58
2018-11-28T01:49:24.764Z,101910.58
2018-11-28T01:51:51.836Z,101911.36
2018-11-28T01:54:18.917Z,101906.17
2018-11-28T01:56:46.034Z,101908.34
2018-11-28T01:59:13.101Z,101903.73
2018-11-28T02:01:40.298Z,101903.81
2018-11-28T02:04:07.405Z,101891.24
2018-11-28T02:06:34.545Z,101884.70
2018-11-28T02:09:01.642Z,101888.06
2018-11-28T02:11:28.988Z,101885.93
2018-11-28T02:13:56.060Z,101881.42
2018-11-28T02:16:23.138Z,101880.91
2018-11-28T02:18:50.238Z,101880.75
2018-11-28T02:21:17.358Z,101885.09
2018-11-28T02:23:44.434Z,101890.42
2018-11-28T02:26:11.802Z,101888.63
2018-11-28T02:28:38.905Z,101886.24
2018-11-28T02:31:05.986Z,101886.03
2018-11-28T02:33:33.083Z,101890.33
2018-11-28T02:36:00.154Z,101892.82
2018-11-28T02:38:27.264Z,101889.31
2018-11-28T02:40:54.437Z,101893.60
2018-11-28T02:43:21.627Z,101897.66
2018-11-28T02:46:52.386Z,101905.81
2018-11-28T02:49:19.460Z,101907.25
2018-11-28T02:51:46.513Z,101905.69
2018-11-28T02:54:13.622Z,101907.20
2018-11-28T02:56:40.699Z,101912.66
2018-11-28T02:59:07.765Z,101917.23
2018-11-28T03:01:42.146Z,101919.45
2018-11-28T03:04:09.246Z,101916.03
2018-11-28T03:06:36.326Z,101913.33
2018-11-28T03:09:05.856Z,101914.97
2018-11-28T03:11:32.950Z,101912.09
2018-11-28T03:14:00.029Z,101910.57
2018-11-28T03:16:27.140Z,101907.98
2018-11-28T03:19:00.895Z,101906.49
2018-11-28T03:21:28.019Z,101907.87
2018-11-28T03:23:55.101Z,101903.44
2018-11-28T03:26:22.216Z,101920.54
2018-11-28T03:28:49.400Z,101922.36
2018-11-28T03:31:16.622Z,101925.72
2018-11-28T03:33:44.917Z,101928.45
2018-11-28T03:36:12.004Z,101927.36
2018-11-28T03:38:39.114Z,101929.72
2018-11-28T03:41:06.248Z,101923.12
2018-11-28T03:43:33.381Z,101933.33
2018-11-28T03:46:00.450Z,101923.97
2018-11-28T03:48:27.587Z,101912.42
2018-11-28T03:50:54.679Z,101912.70
2018-11-28T03:53:21.744Z,101906.95
2018-11-28T03:55:49.263Z,101908.75
2018-11-28T03:58:16.362Z,101903.59
2018-11-28T04:00:43.482Z,101900.44
2018-11-28T04:03:10.578Z,101893.44
2018-11-28T04:05:37.787Z,101900.53
2018-11-28T04:08:05.069Z,101892.48
2018-11-28T04:10:32.271Z,101886.84
2018-11-28T04:12:59.677Z,101883.19
2018-11-28T04:15:26.768Z,101898.47
2018-11-28T04:17:53.921Z,101880.41
2018-11-28T04:20:21.785Z,101883.23
2018-11-28T04:22:48.913Z,101886.19
2018-11-28T04:25:18.045Z,101888.33
2018-11-28T04:27:45.136Z,101886.57
2018-11-28T04:30:15.464Z,101889.30
2018-11-28T04:32:42.583Z,101885.02
2018-11-28T04:35:12.049Z,101886.52
2018-11-28T04:37:39.150Z,101888.63
2018-11-28T04:40:10.304Z,101893.21
2018-11-28T04:42:37.793Z,101884.11
2018-11-28T04:45:06.962Z,101874.45
2018-11-28T04:47:34.041Z,101868.37
2018-11-28T04:50:01.151Z,101872.91
2018-11-28T04:52:28.251Z,101872.30
2018-11-28T04:54:55.318Z,101881.53
2018-11-28T04:57:22.413Z,101886.63
2018-11-28T04:59:49.498Z,101889.06
2018-11-28T05:02:16.642Z,101883.22
2018-11-28T05:04:43.914Z,101894.95
2018-11-28T05:07:27.078Z,101900.95
2018-11-28T05:09:54.346Z,101901.12
2018-11-28T05:12:21.702Z,101903.50
2018-11-28T05:14:49.031Z,101898.53
2018-11-28T05:17:16.154Z,101912.19
2018-11-28T05:19:43.229Z,101908.75
2018-11-28T05:22:10.318Z,101910.25
2018-11-28T05:24:37.422Z,101903.69
2018-11-28T05:27:04.787Z,101909.62
2018-11-28T05:29:31.873Z,101904.79
2018-11-28T05:31:59.034Z,101911.95
2018-11-28T05:34:26.112Z,101909.61
2018-11-28T05:36:53.239Z,101904.55
2018-11-28T05:39:20.335Z,101894.63
2018-11-28T05:41:47.418Z,101902.48
2018-11-28T05:44:14.496Z,101900.33
2018-11-28T05:46:41.607Z,101898.97
2018-11-28T05:49:08.673Z,101896.02
2018-11-28T05:51:35.915Z,101897.10
2018-11-28T05:54:02.882Z,101898.38
2018-11-28T05:56:29.957Z,101898.34
2018-11-28T05:59:03.901Z,101897.53
2018-11-28T06:04:05.038Z,101897.83
2018-11-28T06:06:32.169Z,101903.97
2018-11-28T06:08:59.265Z,101904.50
2018-11-28T06:11:26.374Z,101905.88
2018-11-28T06:13:53.462Z,101903.12
2018-11-28T06:16:20.538Z,101903.47
2018-11-28T06:18:47.605Z,101901.41
2018-11-28T06:21:14.755Z,101883.61
2018-11-28T06:23:41.853Z,101905.69
2018-11-28T06:26:08.924Z,101911.54
2018-11-28T06:28:36.017Z,101913.91
2018-11-28T06:31:03.106Z,101908.52
2018-11-28T06:33:30.241Z,101905.73
2018-11-28T06:35:57.343Z,101908.02
2018-11-28T06:38:24.411Z,101908.89
2018-11-28T06:40:51.650Z,101917.95
2018-11-28T06:43:18.745Z,101906.97
2018-11-28T06:45:45.875Z,101913.45
2018-11-28T06:48:12.975Z,101915.04
2018-11-28T06:50:40.066Z,101918.22
2018-11-28T06:53:07.195Z,101920.06
2018-11-28T06:55:34.281Z,101923.91
2018-11-28T06:58:01.354Z,101917.83
2018-11-28T07:00:28.489Z,101911.20
2018-11-28T07:02:55.605Z,101917.78
2018-11-28T07:05:22.971Z,101917.98
2018-11-28T07:07:50.401Z,101916.45
2018-11-28T07:10:18.489Z,101924.58
2018-11-28T07:12:45.650Z,101912.84
2018-11-28T07:15:13.941Z,101920.84
2018-11-28T07:17:41.563Z,101914.89
2018-11-28T07:20:09.838Z,101919.69
2018-11-28T07:22:36.967Z,101919.61
2018-11-28T07:25:06.080Z,101917.95
2018-11-28T07:27:33.167Z,101913.11
2018-11-28T07:30:00.274Z,101916.94
2018-11-28T07:32:27.369Z,101921.91
2018-11-28T07:34:54.450Z,101922.92
2018-11-28T07:37:21.763Z,101915.39
2018-11-28T07:39:48.870Z,101918.55
2018-11-28T07:42:15.958Z,101914.83
2018-11-28T07:44:43.170Z,101915.22
2018-11-28T07:47:10.269Z,101915.98
2018-11-28T07:49:37.353Z,101914.83
2018-11-28T07:52:11.646Z,101908.70
2018-11-28T07:54:38.742Z,101909.82
2018-11-28T07:57:05.816Z,101916.23
2018-11-28T07:59:32.926Z,101921.05
2018-11-28T08:02:00.015Z,101923.20
2018-11-28T08:04:27.111Z,101928.91
2018-11-28T08:06:54.478Z,101930.06
2018-11-28T08:09:21.566Z,101926.34
2018-11-28T08:11:48.656Z,101919.65
2018-11-28T08:14:15.749Z,101926.50
2018-11-28T08:16:42.889Z,101910.25
2018-11-28T08:19:09.938Z,101824.98
2018-11-28T08:21:37.080Z,101921.59
2018-11-28T08:24:04.602Z,101924.00
2018-11-28T08:26:31.674Z,101927.91
2018-11-28T08:28:59.067Z,101925.84
2018-11-28T08:31:26.146Z,101928.17
2018-11-28T08:33:53.243Z,101938.20
2018-11-28T08:36:20.478Z,101932.14
2018-11-28T08:38:47.578Z,101931.05
2018-11-28T08:41:14.650Z,101939.66
2018-11-28T08:43:41.737Z,101936.81
2018-11-28T08:46:09.128Z,101938.20
2018-11-28T08:48:36.222Z,101932.34
2018-11-28T08:51:03.342Z,101926.50
2018-11-28T08:53:47.836Z,101925.59
2018-11-28T08:56:24.929Z,101924.56
2018-11-28T08:58:52.161Z,101917.13
2018-11-28T09:01:19.205Z,101919.39
2018-11-28T09:03:46.336Z,101921.30
2018-11-28T09:06:13.432Z,101925.91
2018-11-28T09:08:40.531Z,101919.21
2018-11-28T09:11:07.983Z,101912.02
2018-11-28T09:13:35.054Z,101915.36
2018-11-28T09:16:02.155Z,101920.17
2018-11-28T09:18:29.264Z,101906.52
2018-11-28T09:20:56.373Z,101902.13
2018-11-28T09:23:23.472Z,101901.08
2018-11-28T09:25:50.648Z,101913.33
2018-11-28T09:28:17.742Z,101922.22
2018-11-28T09:30:44.822Z,101910.85
2018-11-28T09:33:11.899Z,101918.08
2018-11-28T09:35:38.994Z,101914.81
2018-11-28T09:38:06.171Z,101915.09
2018-11-28T09:40:33.284Z,101921.97
2018-11-28T09:43:00.353Z,101914.75
2018-11-28T09:45:27.532Z,101916.83
2018-11-28T09:47:54.695Z,101905.56
2018-11-28T09:50:23.647Z,101906.63
2018-11-28T09:52:51.170Z,101898.37
2018-11-28T09:55:20.691Z,101911.87
2018-11-28T09:57:47.845Z,101900.68
2018-11-28T10:00:20.977Z,101897.13
2018-11-28T10:02:49.145Z,101890.80
2018-11-28T10:05:18.509Z,101891.70
2018-11-28T10:07:45.909Z,101877.69
2018-11-28T10:10:13.430Z,101883.78
2018-11-28T10:12:40.922Z,101874.59
2018-11-28T10:15:16.033Z,101886.27
2018-11-28T10:17:43.570Z,101869.53
2018-11-28T10:20:11.944Z,101868.79
2018-11-28T10:22:39.513Z,101871.78
2018-11-28T10:25:08.957Z,101878.27
2018-11-28T10:27:36.067Z,101867.89
2018-11-28T10:30:03.666Z,101869.58
2018-11-28T10:32:30.789Z,101865.69
2018-11-28T10:34:57.914Z,101861.66
2018-11-28T10:37:25.002Z,101855.42
2018-11-28T10:39:52.106Z,101849.30
2018-11-28T10:42:19.604Z,101852.63
2018-11-28T10:44:46.691Z,101848.55
2018-11-28T10:47:13.794Z,101845.70
2018-11-28T10:49:41.174Z,101840.22
2018-11-28T10:52:08.369Z,101842.22
2018-11-28T10:54:36.901Z,101837.46
2018-11-28T10:57:05.732Z,101837.30
2018-11-28T10:59:32.786Z,101828.45
2018-11-28T11:02:05.804Z,101825.03
2018-11-28T11:04:38.631Z,101834.31
2018-11-28T11:07:11.562Z,101840.20
2018-11-28T11:09:44.366Z,101824.53
2018-11-28T11:12:17.165Z,101815.56
2018-11-28T11:14:46.195Z,101815.70
2018-11-28T11:17:13.489Z,101826.13
2018-11-28T11:19:40.967Z,101824.19
2018-11-28T11:22:08.082Z,101820.06
2018-11-28T11:24:35.161Z,101830.85
2018-11-28T11:27:02.306Z,101837.35
2018-11-28T11:29:29.400Z,101832.08
2018-11-28T11:31:56.481Z,101825.26
2018-11-28T11:34:23.838Z,101823.30
2018-11-28T11:36:50.953Z,101815.22
2018-11-28T11:39:18.065Z,101824.03
2018-11-28T11:41:45.163Z,101821.08
2018-11-28T11:44:12.251Z,101820.56
2018-11-28T11:46:39.592Z,101815.11
2018-11-28T11:49:06.682Z,101812.27
2018-11-28T11:51:33.751Z,101798.33
2018-11-28T11:54:00.850Z,101793.48
2018-11-28T11:56:28.186Z,101794.94
2018-11-28T11:58:55.282Z,101790.48
2018-11-28T12:01:22.482Z,101773.91
2018-11-28T12:03:49.590Z,101775.65
2018-11-28T12:06:16.680Z,101769.85
2018-11-28T12:08:43.744Z,101767.20
2018-11-28T12:11:10.824Z,101771.67
2018-11-28T12:13:38.241Z,101784.19
2018-11-28T12:16:05.759Z,101775.19
2018-11-28T12:18:32.907Z,101775.02
2018-11-28T12:21:01.945Z,101770.95
2018-11-28T12:23:29.054Z,101774.30
2018-11-28T12:25:56.797Z,101765.67
2018-11-28T12:28:23.900Z,101774.53
2018-11-28T12:30:51.668Z,101777.88
2018-11-28T12:33:18.779Z,101765.52
2018-11-28T12:35:45.931Z,101762.32
2018-11-28T12:38:13.327Z,101761.25
2018-11-28T12:40:40.430Z,101750.31
2018-11-28T12:43:09.373Z,101749.80
2018-11-28T12:45:38.770Z,101750.13
2018-11-28T12:48:05.900Z,101746.59
2018-11-28T12:50:33.031Z,101747.03
2018-11-28T12:53:01.059Z,101746.57
2018-11-28T12:55:29.042Z,101743.09
2018-11-28T12:57:56.673Z,101738.07
2018-11-28T13:00:26.988Z,101733.61
2018-11-28T13:02:54.134Z,101725.17
2018-11-28T13:05:23.230Z,101724.35
2018-11-28T13:07:50.403Z,101729.41
2018-11-28T13:10:19.497Z,101729.59
2018-11-28T13:12:47.457Z,101728.91
2018-11-28T13:15:16.446Z,101722.34
2018-11-28T13:17:43.549Z,101717.59
2018-11-28T13:20:13.769Z,101717.20
2018-11-28T13:22:41.005Z,101712.47
2018-11-28T13:25:09.755Z,101717.42
2018-11-28T13:27:36.852Z,101712.82
2018-11-28T13:30:11.385Z,101704.91
2018-11-28T13:32:39.032Z,101709.33
2018-11-28T13:35:06.151Z,101718.80
2018-11-28T13:37:33.393Z,101705.03
2018-11-28T13:40:00.464Z,101704.02
2018-11-28T13:42:27.562Z,101711.26
2018-11-28T13:44:54.674Z,101701.02
2018-11-28T13:47:22.512Z,101693.25
2018-11-28T13:49:49.676Z,101693.59
2018-11-28T13:52:16.786Z,101688.48
2018-11-28T13:55:37.798Z,101687.22
2018-11-28T13:57:11.182Z,101679.42
2018-11-28T13:59:38.142Z,101675.55
2018-11-28T14:02:05.285Z,101676.97
2018-11-28T14:04:32.381Z,101682.11
2018-11-28T14:06:59.714Z,101677.65
2018-11-28T14:09:26.830Z,101675.91
2018-11-28T14:11:53.906Z,101685.45
2018-11-28T14:14:20.990Z,101678.19
2018-11-28T14:16:48.253Z,101678.73
2018-11-28T14:19:15.312Z,101675.35
2018-11-28T14:21:42.509Z,101673.47
2018-11-28T14:24:09.598Z,101670.25
2018-11-28T14:26:36.694Z,101679.62
2018-11-28T14:29:04.381Z,101670.64
2018-11-28T14:31:31.760Z,101674.52
2018-11-28T14:33:58.938Z,101671.69
2018-11-28T14:36:26.441Z,101674.36
2018-11-28T14:38:53.516Z,101668.34
2018-11-28T14:41:20.610Z,101672.76
2018-11-28T14:43:48.395Z,101663.03
2018-11-28T14:47:01.005Z,101652.79
2018-11-28T14:49:28.977Z,101656.34
2018-11-28T14:51:56.055Z,101645.94
2018-11-28T14:54:23.128Z,101658.83
2018-11-28T14:56:50.302Z,101656.34
2018-11-28T14:59:17.402Z,101652.63
2018-11-28T15:01:44.507Z,101656.36
2018-11-28T15:04:12.414Z,101661.63
2018-11-28T15:06:53.397Z,101654.75
2018-11-28T15:09:27.235Z,101650.53
2018-11-28T15:11:54.370Z,101647.16
2018-11-28T15:14:21.486Z,101644.35
2018-11-28T15:16:48.596Z,101635.86
2018-11-28T15:19:15.686Z,101617.66
2018-11-28T15:21:42.794Z,101637.61
2018-11-28T15:24:09.899Z,101632.50
2018-11-28T15:26:37.007Z,101627.38
2018-11-28T15:29:04.669Z,101626.29
2018-11-28T15:31:31.778Z,101619.06
2018-11-28T15:33:58.899Z,101613.25
2018-11-28T15:36:25.978Z,101607.97
2018-11-28T15:38:53.054Z,101603.54
2018-11-28T15:41:20.165Z,101596.47
2018-11-28T15:43:47.269Z,101593.32
2018-11-28T15:46:15.070Z,101593.66
2018-11-28T15:48:41.487Z,101591.89
2018-11-28T15:51:08.604Z,101591.38
2018-11-28T15:53:35.713Z,101584.31
2018-11-28T15:56:02.847Z,101592.24
2018-11-28T15:58:29.927Z,101595.23
2018-11-28T16:00:57.031Z,101607.05
2018-11-28T16:03:24.134Z,101599.84
2018-11-28T16:05:51.210Z,101595.89
2018-11-28T16:08:18.407Z,101598.26
2018-11-28T16:10:45.800Z,101596.11
2018-11-28T16:13:14.570Z,101597.19
2018-11-28T16:15:47.323Z,101599.77
2018-11-28T16:18:14.629Z,101597.72
2018-11-28T16:20:41.795Z,101590.45
2018-11-28T16:23:08.939Z,101596.26
2018-11-28T16:25:36.036Z,101599.26
2018-11-28T16:28:03.171Z,101612.87
2018-11-28T16:30:30.303Z,101607.04
2018-11-28T16:32:57.518Z,101598.05
2018-11-28T16:35:25.162Z,101587.30
2018-11-28T16:37:52.283Z,101586.45
2018-11-28T16:40:19.362Z,101583.45
2018-11-28T16:42:46.463Z,101588.92
2018-11-28T16:45:15.701Z,101582.55
2018-11-28T16:47:43.063Z,101582.73
2018-11-28T16:50:11.047Z,101580.77
2018-11-28T16:52:38.187Z,101584.31
2018-11-28T16:55:06.742Z,101586.81
2018-11-28T16:57:33.847Z,101575.33
2018-11-28T17:00:01.164Z,101572.48
2018-11-28T17:02:28.262Z,101579.72
2018-11-28T17:04:55.347Z,101574.97
2018-11-28T17:07:22.459Z,101580.08
2018-11-28T17:09:49.549Z,101557.16
2018-11-28T17:12:16.712Z,101555.73
2018-11-28T17:14:43.820Z,101554.31
2018-11-28T17:17:10.954Z,101549.55
2018-11-28T17:19:38.120Z,101551.14
2018-11-28T17:22:05.438Z,101558.03
2018-11-28T17:24:33.090Z,101547.95
2018-11-28T17:27:01.047Z,101546.91
2018-11-28T17:29:29.189Z,101560.30
2018-11-28T17:31:56.530Z,101556.23
2018-11-28T17:34:24.104Z,101550.62
2018-11-28T17:36:51.538Z,101544.44
2018-11-28T17:39:18.702Z,101535.41
2018-11-28T17:41:46.111Z,101527.81
2018-11-28T17:44:13.430Z,101522.19
2018-11-28T17:46:41.074Z,101525.36
2018-11-28T17:49:08.214Z,101522.69
2018-11-28T17:51:35.442Z,101521.83
2018-11-28T17:54:02.537Z,101516.71
2018-11-28T17:56:29.890Z,101518.81
2018-11-28T17:58:56.964Z,101508.95
2018-11-28T18:01:24.080Z,101512.66
2018-11-28T18:03:51.225Z,101496.76
2018-11-28T18:06:18.465Z,101493.59
2018-11-28T18:08:45.546Z,101471.34
2018-11-28T18:11:14.039Z,101481.56
2018-11-28T18:13:41.875Z,101476.27
2018-11-28T18:16:09.084Z,101485.97
2018-11-28T18:18:36.348Z,101482.09
2018-11-28T18:21:03.521Z,101481.95
2018-11-28T18:23:30.635Z,101473.98
2018-11-28T18:25:57.846Z,101489.67
2018-11-28T18:28:25.117Z,101484.36
2018-11-28T18:30:52.254Z,101494.62
2018-11-28T18:33:19.543Z,101501.31
2018-11-28T18:35:46.779Z,101497.60
2018-11-28T18:38:13.882Z,101500.08
2018-11-28T18:40:40.992Z,101501.64
2018-11-28T18:43:08.800Z,101512.06
2018-11-28T18:45:40.505Z,101505.55
2018-11-28T18:48:07.649Z,101498.83
2018-11-28T18:50:34.811Z,101502.38
2018-11-28T18:53:01.963Z,101493.36
2018-11-28T18:55:29.083Z,101497.06
2018-11-28T18:57:56.511Z,101492.64
2018-11-28T19:00:25.441Z,101475.33
2018-11-28T19:02:53.057Z,101480.31
2018-11-28T19:05:20.384Z,101484.54
2018-11-28T19:07:48.054Z,101480.95
2018-11-28T19:10:18.207Z,101491.41
2018-11-28T19:12:45.310Z,101489.30
2018-11-28T19:15:14.782Z,101482.58
2018-11-28T19:17:42.081Z,101479.39
2018-11-28T19:20:11.210Z,101481.52
2018-11-28T19:22:38.460Z,101471.13
2018-11-28T19:25:07.558Z,101475.92
2018-11-28T19:27:34.632Z,101464.78
2018-11-28T19:30:02.066Z,101459.86
2018-11-28T19:32:29.241Z,101460.36
2018-11-28T19:34:56.348Z,101448.11
2018-11-28T19:37:23.730Z,101449.72
2018-11-28T19:39:50.828Z,101445.98
2018-11-28T19:42:17.911Z,101438.15
2018-11-28T19:44:44.989Z,101435.20
2018-11-28T19:47:12.135Z,101418.42
2018-11-28T19:49:39.467Z,101417.91
2018-11-28T19:52:06.681Z,101424.63
2018-11-28T19:54:33.923Z,101427.98
2018-11-28T19:57:01.062Z,101432.97
2018-11-28T19:59:28.188Z,101432.95
2018-11-28T20:01:55.274Z,101431.35
2018-11-28T20:04:22.422Z,101422.38
2018-11-28T20:06:49.583Z,101417.77
2018-11-28T20:09:18.729Z,101422.52
2018-11-28T20:11:45.836Z,101420.78
2018-11-28T20:14:12.926Z,101427.30
2018-11-28T20:16:40.174Z,101417.58
2018-11-28T20:19:07.406Z,101427.11
2018-11-28T20:21:34.494Z,101425.69
2018-11-28T20:24:01.747Z,101417.91
2018-11-28T20:26:28.999Z,101419.02
2018-11-28T20:28:56.089Z,101437.20
2018-11-28T20:31:23.207Z,101429.75
2018-11-28T20:33:50.443Z,101409.63
2018-11-28T20:36:17.538Z,101398.33
2018-11-28T20:38:44.815Z,101389.70
2018-11-28T20:41:11.830Z,101386.50
2018-11-28T20:43:38.933Z,101383.69
2018-11-28T20:46:06.921Z,101389.15
2018-11-28T20:48:34.195Z,101367.97
2018-11-28T20:51:01.286Z,101376.50
2018-11-28T20:53:28.477Z,101374.08
2018-11-28T20:55:55.576Z,101376.58
2018-11-28T20:58:22.813Z,101369.03
2018-11-28T21:00:50.085Z,101362.91
2018-11-28T21:03:17.179Z,101367.05
2018-11-28T21:05:44.278Z,101367.16
2018-11-28T21:08:11.507Z,101378.81
2018-11-28T21:10:40.335Z,101388.39
2018-11-28T21:13:09.613Z,101385.61
2018-11-28T21:15:36.790Z,101381.52
2018-11-28T21:18:04.353Z,101373.23
2018-11-28T21:20:31.669Z,101368.86
2018-11-28T21:23:00.132Z,101362.85
2018-11-28T21:25:27.398Z,101370.27
2018-11-28T21:27:54.785Z,101362.85
2018-11-28T21:30:21.929Z,101356.33
2018-11-28T21:32:50.926Z,101348.44
2018-11-28T21:35:20.591Z,101343.97
2018-11-28T21:37:47.662Z,101342.86
2018-11-28T21:40:14.813Z,101344.27
2018-11-28T21:42:41.935Z,101344.14
2018-11-28T21:45:13.201Z,101345.41
2018-11-28T21:47:40.328Z,101351.06
2018-11-28T21:50:10.078Z,101343.09
2018-11-28T21:52:37.153Z,101348.41
2018-11-28T21:55:05.670Z,101351.22
2018-11-28T21:57:33.557Z,101357.91
2018-11-28T22:00:00.638Z,101351.55
2018-11-28T22:02:28.405Z,101339.19
2018-11-28T22:04:55.212Z,101333.48
2018-11-28T22:07:22.626Z,101335.95
2018-11-28T22:09:50.005Z,101336.30
2018-11-28T22:12:17.157Z,101330.84
2018-11-28T22:14:44.354Z,101324.78
2018-11-28T22:17:11.446Z,101324.14
2018-11-28T22:19:38.583Z,101332.12
2018-11-28T22:22:05.707Z,101330.88
2018-11-28T22:24:33.113Z,101334.55
2018-11-28T22:27:00.190Z,101330.20
2018-11-28T22:29:27.657Z,101320.12
2018-11-28T22:31:55.175Z,101316.91
2018-11-28T22:34:22.273Z,101315.95
2018-11-28T22:36:49.368Z,101312.09
2018-11-28T22:39:16.485Z,101324.48
2018-11-28T22:41:43.602Z,101322.47
2018-11-28T22:44:10.694Z,101311.91
2018-11-28T22:49:11.895Z,101284.66
2018-11-28T22:51:39.150Z,101292.30
2018-11-28T22:54:06.509Z,101278.52
2018-11-28T22:56:33.610Z,101278.12
2018-11-28T22:59:00.809Z,101269.12
2018-11-28T23:01:37.247Z,101273.30
2018-11-28T23:04:04.752Z,101269.91
2018-11-28T23:06:32.253Z,101263.16
2018-11-28T23:08:59.482Z,101262.86
2018-11-28T23:11:26.574Z,101248.70
2018-11-28T23:13:53.697Z,101255.92
2018-11-28T23:16:20.775Z,101258.06
2018-11-28T23:18:47.856Z,101267.71
2018-11-28T23:21:15.297Z,101255.19
2018-11-28T23:23:42.381Z,101262.10
2018-11-28T23:26:09.502Z,101257.45
2018-11-28T23:28:36.601Z,101256.00
2018-11-28T23:31:03.949Z,101249.72
2018-11-28T23:33:31.013Z,101243.45
2018-11-28T23:35:58.481Z,101240.06
2018-11-28T23:38:25.549Z,101239.88
2018-11-28T23:40:52.629Z,101228.56
2018-11-28T23:43:19.905Z,101228.22
2018-11-28T23:45:47.009Z,101216.59
2018-11-28T23:48:14.094Z,101213.17
2018-11-28T23:50:41.170Z,101209.57
2018-11-28T23:53:08.249Z,101208.31
2018-11-28T23:55:35.348Z,101206.75
2018-11-28T23:58:02.430Z,101202.98
